Time;durP1;ratioP1;P1;durP2;ratioP2;P2;SDS_P1;SDS_P2;PMS_P1;PMS_P2;Temp;Humidity;BMP_temperature;BMP_pressure;BME280_temperature;BME280_humidity;BME280_pressure;Samples;Min_cycle;Max_cycle;Signal;HPM_P1;HPM_P2
2023/03/06 00:00:05;;;;;;;19.77;10.02;;;;;;;4.31;66.29;98795.00;340625;29;1473;-82
2023/03/06 00:00:23;;;;;;;20.58;10.25;;;;;;;4.23;66.70;98796.88;339541;29;1615;-82
2023/03/06 00:00:38;;;;;;;20.10;10.17;;;;;;;4.12;66.86;98797.09;338900;29;1206;-82
2023/03/06 00:00:56;;;;;;;18.73;9.80;;;;;;;4.08;67.39;98794.63;340124;29;989;-82
2023/03/06 00:01:08;;;;;;;20.83;10.00;;;;;;;4.15;67.07;98798.78;340692;29;854;-82
2023/03/06 00:01:20;;;;;;;20.70;10.02;;;;;;;4.19;67.36;98800.41;340494;29;821;-83
2023/03/06 00:01:32;;;;;;;18.23;9.73;;;;;;;4.26;67.10;98795.97;337452;29;748;-82
2023/03/06 00:01:47;;;;;;;18.40;9.77;;;;;;;4.27;67.07;98798.50;336366;29;1247;-82
2023/03/06 00:01:59;;;;;;;17.40;9.45;;;;;;;4.19;67.05;98796.09;338285;29;1612;-82
2023/03/06 00:02:11;;;;;;;16.92;9.32;;;;;;;4.20;66.89;98802.06;336924;29;1790;-82
2023/03/06 00:02:24;;;;;;;17.92;9.73;;;;;;;4.23;66.46;98801.19;336873;29;2602;-82
2023/03/06 00:02:36;;;;;;;18.27;10.10;;;;;;;4.23;67.27;98798.63;335903;29;1126;-82
2023/03/06 00:02:48;;;;;;;19.05;10.45;;;;;;;4.26;67.09;98801.94;335873;29;1009;-82
2023/03/06 00:03:04;;;;;;;18.75;10.48;;;;;;;4.30;66.73;98801.00;335998;29;1070;-82
2023/03/06 00:03:16;;;;;;;17.75;10.45;;;;;;;4.32;66.98;98804.38;335158;29;1957;-82
2023/03/06 00:03:28;;;;;;;16.58;10.05;;;;;;;4.37;66.86;98800.00;335428;29;978;-82
2023/03/06 00:03:40;;;;;;;17.17;10.32;;;;;;;4.38;66.60;98799.13;336302;29;1884;-82
2023/03/06 00:03:53;;;;;;;18.05;10.10;;;;;;;4.42;66.60;98796.50;336543;29;1249;-82
2023/03/06 00:04:07;;;;;;;18.55;10.05;;;;;;;4.43;66.45;98800.75;336202;29;873;-82
2023/03/06 00:04:19;;;;;;;17.20;9.50;;;;;;;4.38;66.24;98801.69;335558;29;1733;-82
2023/03/06 00:04:31;;;;;;;16.52;9.60;;;;;;;4.38;66.46;98796.53;337195;29;1260;-82
2023/03/06 00:04:43;;;;;;;17.42;9.63;;;;;;;4.44;66.47;98794.72;337579;29;1103;-82
2023/03/06 00:04:55;;;;;;;16.98;9.35;;;;;;;4.47;66.27;98795.53;338373;29;1212;-82
2023/03/06 00:05:08;;;;;;;16.83;9.55;;;;;;;4.43;65.62;98799.03;337441;29;728;-82
2023/03/06 00:05:20;;;;;;;15.55;9.52;;;;;;;4.34;66.78;98802.63;337245;29;1123;-82
2023/03/06 00:05:33;;;;;;;16.23;9.43;;;;;;;4.25;66.79;98795.13;337239;29;1182;-82
2023/03/06 00:05:46;;;;;;;17.60;9.38;;;;;;;4.24;67.70;98793.41;336431;29;1201;-82
2023/03/06 00:05:59;;;;;;;18.50;9.43;;;;;;;4.10;67.42;98796.25;337373;29;1315;-82
2023/03/06 00:06:11;;;;;;;18.63;9.60;;;;;;;4.11;67.42;98792.84;335905;29;1056;-82
2023/03/06 00:06:23;;;;;;;18.17;9.98;;;;;;;4.09;67.64;98793.75;335460;29;864;-82
2023/03/06 00:06:35;;;;;;;17.63;9.95;;;;;;;4.00;67.51;98795.63;335886;29;1602;-82
2023/03/06 00:06:47;;;;;;;17.73;9.90;;;;;;;3.86;68.12;98792.44;336141;29;1189;-82
2023/03/06 00:07:02;;;;;;;17.40;9.55;;;;;;;3.90;68.04;98788.94;334636;29;1907;-82
2023/03/06 00:07:14;;;;;;;18.33;10.27;;;;;;;3.98;68.36;98791.38;334955;29;879;-82
2023/03/06 00:07:26;;;;;;;18.95;10.27;;;;;;;4.04;68.17;98788.69;335679;29;1736;-83
2023/03/06 00:07:38;;;;;;;19.95;10.43;;;;;;;4.04;67.92;98798.97;336049;29;1094;-82
2023/03/06 00:07:50;;;;;;;19.02;10.23;;;;;;;3.97;68.18;98795.69;336793;29;1257;-82
2023/03/06 00:08:02;;;;;;;19.30;10.40;;;;;;;3.90;68.22;98796.66;337196;29;1285;-82
2023/03/06 00:08:14;;;;;;;20.08;10.13;;;;;;;3.88;68.61;98790.69;337250;29;1212;-82
2023/03/06 00:08:27;;;;;;;19.48;9.52;;;;;;;3.86;68.26;98791.63;337413;29;1679;-83
2023/03/06 00:08:39;;;;;;;18.60;9.73;;;;;;;3.81;68.94;98791.72;336524;29;1263;-82
2023/03/06 00:08:51;;;;;;;18.02;9.85;;;;;;;3.80;68.52;98788.31;338280;29;1237;-82
2023/03/06 00:09:03;;;;;;;17.92;9.90;;;;;;;3.85;69.04;98788.19;339294;29;748;-82
2023/03/06 00:09:15;;;;;;;18.27;9.88;;;;;;;3.90;68.51;98788.94;337498;29;1911;-82
2023/03/06 00:09:27;;;;;;;18.45;10.20;;;;;;;3.92;68.52;98787.19;337359;29;988;-82
2023/03/06 00:09:39;;;;;;;18.15;10.13;;;;;;;3.96;68.10;98787.97;336137;29;1180;-82
2023/03/06 00:09:51;;;;;;;15.80;9.75;;;;;;;4.01;68.14;98786.19;335840;29;1230;-82
2023/03/06 00:10:04;;;;;;;15.30;9.50;;;;;;;4.07;68.16;98785.22;336076;29;1485;-82
2023/03/06 00:10:27;;;;;;;15.30;9.50;;;;;;;4.06;67.46;98783.50;336079;29;1002;-82
2023/03/06 00:10:43;;;;;;;18.85;9.50;;;;;;;4.09;67.54;98791.19;337623;29;1581;-82
2023/03/06 00:10:55;;;;;;;20.15;9.20;;;;;;;4.14;67.47;98786.78;336355;29;1737;-82
2023/03/06 00:11:07;;;;;;;19.30;9.30;;;;;;;4.17;67.54;98786.72;336148;29;1764;-82
2023/03/06 00:11:20;;;;;;;18.25;9.68;;;;;;;4.18;66.67;98788.41;335544;29;3044;-82
2023/03/06 00:11:32;;;;;;;16.80;9.43;;;;;;;4.20;66.79;98786.63;335379;29;1112;-82
2023/03/06 00:11:44;;;;;;;16.95;9.52;;;;;;;4.25;67.10;98779.69;335564;29;854;-82
2023/03/06 00:11:56;;;;;;;19.00;9.63;;;;;;;4.24;67.11;98783.13;335166;29;757;-82
2023/03/06 00:12:08;;;;;;;20.02;10.13;;;;;;;4.20;66.76;98782.38;337675;29;914;-82
2023/03/06 00:12:20;;;;;;;18.38;10.30;;;;;;;4.15;66.86;98788.47;337492;29;995;-82
2023/03/06 00:12:32;;;;;;;18.85;9.55;;;;;;;4.21;67.05;98788.34;336642;29;737;-82
2023/03/06 00:12:45;;;;;;;18.35;9.20;;;;;;;4.22;67.01;98782.31;334981;29;1266;-82
2023/03/06 00:13:00;;;;;;;17.33;9.18;;;;;;;4.28;66.86;98789.91;338032;29;741;-82
2023/03/06 00:13:14;;;;;;;17.05;9.40;;;;;;;4.31;66.71;98787.28;337791;29;1146;-82
2023/03/06 00:13:28;;;;;;;17.80;9.80;;;;;;;4.32;66.90;98791.53;336546;29;1153;-83
2023/03/06 00:13:41;;;;;;;16.65;9.80;;;;;;;4.35;66.80;98786.34;336845;29;1037;-82
2023/03/06 00:13:53;;;;;;;16.15;9.45;;;;;;;4.35;66.43;98783.75;336910;29;1072;-82
2023/03/06 00:14:05;;;;;;;16.35;9.25;;;;;;;4.36;66.18;98787.16;337427;29;1070;-82
2023/03/06 00:14:17;;;;;;;19.50;9.95;;;;;;;4.37;66.30;98787.16;335751;29;749;-82
2023/03/06 00:14:29;;;;;;;19.88;10.23;;;;;;;4.41;66.26;98785.38;336014;29;1154;-83
2023/03/06 00:14:41;;;;;;;19.40;10.05;;;;;;;4.35;66.18;98786.34;336469;29;831;-83
2023/03/06 00:14:53;;;;;;;18.98;9.82;;;;;;;4.36;66.11;98788.00;335024;29;781;-83
2023/03/06 00:15:06;;;;;;;18.77;9.20;;;;;;;4.38;66.67;98785.41;336347;29;1051;-83
2023/03/06 00:15:19;;;;;;;17.55;8.77;;;;;;;4.38;66.21;98783.69;336858;29;1138;-83
2023/03/06 00:15:31;;;;;;;17.33;8.98;;;;;;;4.39;66.11;98787.13;337948;29;783;-84
2023/03/06 00:15:44;;;;;;;15.30;8.80;;;;;;;4.43;66.11;98787.88;337983;29;748;-83
2023/03/06 00:15:59;;;;;;;15.55;8.60;;;;;;;4.46;65.88;98787.81;336682;29;978;-83
2023/03/06 00:16:12;;;;;;;15.52;8.65;;;;;;;4.48;65.57;98786.06;336268;29;1010;-83
2023/03/06 00:16:24;;;;;;;15.18;8.90;;;;;;;4.48;65.69;98788.63;336540;29;1047;-83
2023/03/06 00:16:36;;;;;;;15.88;8.95;;;;;;;4.49;65.85;98787.78;336421;29;2722;-83
2023/03/06 00:16:48;;;;;;;15.35;8.98;;;;;;;4.51;65.53;98793.72;336705;29;789;-83
2023/03/06 00:17:00;;;;;;;16.77;9.40;;;;;;;4.50;65.70;98789.44;336598;29;977;-83
2023/03/06 00:17:12;;;;;;;16.70;8.98;;;;;;;4.53;65.87;98789.41;335182;29;1010;-84
2023/03/06 00:17:27;;;;;;;17.00;9.00;;;;;;;4.55;65.16;98788.47;335285;29;862;-84
2023/03/06 00:17:39;;;;;;;15.25;8.77;;;;;;;4.56;64.85;98781.59;335258;29;966;-84
2023/03/06 00:17:52;;;;;;;13.88;8.40;;;;;;;4.60;65.91;98790.94;336378;29;1018;-83
2023/03/06 00:18:05;;;;;;;15.55;8.60;;;;;;;4.54;66.07;98791.06;337776;29;971;-84
2023/03/06 00:18:17;;;;;;;16.13;8.95;;;;;;;4.42;66.07;98786.19;338187;29;772;-83
2023/03/06 00:18:29;;;;;;;16.55;9.00;;;;;;;4.36;66.11;98788.00;337107;29;943;-84
2023/03/06 00:18:42;;;;;;;18.38;9.45;;;;;;;4.38;65.89;98790.56;336837;29;977;-83
2023/03/06 00:18:55;;;;;;;18.73;9.45;;;;;;;4.36;65.84;98785.44;336583;29;927;-83
2023/03/06 00:19:07;;;;;;;18.05;9.20;;;;;;;4.17;66.59;98781.56;338054;29;1022;-83
2023/03/06 00:19:19;;;;;;;17.67;9.13;;;;;;;4.15;66.76;98783.34;335624;29;1190;-84
2023/03/06 00:19:31;;;;;;;17.08;8.82;;;;;;;4.13;67.23;98787.66;335894;29;754;-83
2023/03/06 00:19:43;;;;;;;16.50;9.02;;;;;;;4.15;66.97;98783.34;335313;29;840;-83
2023/03/06 00:19:56;;;;;;;16.98;8.82;;;;;;;4.08;67.30;98787.72;335121;29;891;-83
2023/03/06 00:20:10;;;;;;;15.70;8.52;;;;;;;4.09;67.45;98786.88;335200;29;895;-83
2023/03/06 00:20:24;;;;;;;15.88;8.73;;;;;;;4.13;66.81;98787.66;336021;29;1378;-83
2023/03/06 00:20:39;;;;;;;16.63;9.00;;;;;;;4.21;67.25;98783.22;337487;29;1207;-83
2023/03/06 00:20:53;;;;;;;16.95;8.88;;;;;;;4.17;66.65;98784.16;337966;29;1051;-83
2023/03/06 00:21:07;;;;;;;16.65;8.70;;;;;;;4.17;66.94;98791.88;338137;29;728;-84
2023/03/06 00:21:19;;;;;;;17.60;9.00;;;;;;;4.16;67.23;98785.00;337372;29;1130;-83
2023/03/06 00:21:31;;;;;;;18.23;9.05;;;;;;;4.14;67.39;98784.19;338858;29;952;-83
2023/03/06 00:21:43;;;;;;;19.20;8.98;;;;;;;4.19;66.89;98790.09;338239;29;950;-83
2023/03/06 00:21:55;;;;;;;18.42;9.05;;;;;;;4.19;67.08;98790.09;338015;29;1112;-83
2023/03/06 00:22:12;;;;;;;17.00;9.02;;;;;;;4.24;66.80;98785.69;338145;29;933;-83
2023/03/06 00:22:27;;;;;;;16.38;8.95;;;;;;;4.25;66.97;98778.84;337505;29;1712;-83
2023/03/06 00:22:40;;;;;;;16.25;8.85;;;;;;;4.24;66.55;98790.00;337691;29;1063;-83
2023/03/06 00:22:55;;;;;;;15.68;8.52;;;;;;;4.25;66.42;98786.56;337536;29;1240;-83
2023/03/06 00:23:08;;;;;;;15.48;8.60;;;;;;;4.28;66.27;98783.91;337858;29;1000;-84
2023/03/06 00:23:20;;;;;;;15.65;8.75;;;;;;;4.26;66.68;98783.94;338155;29;1028;-84
2023/03/06 00:23:32;;;;;;;16.38;9.30;;;;;;;4.23;66.50;98781.44;336804;29;981;-83
2023/03/06 00:23:45;;;;;;;15.63;9.27;;;;;;;4.24;66.43;98793.41;337089;29;910;-83
2023/03/06 00:23:57;;;;;;;15.27;9.07;;;;;;;4.26;66.36;98785.66;336099;29;955;-83
2023/03/06 00:24:09;;;;;;;15.57;8.87;;;;;;;4.28;66.33;98789.06;333968;29;987;-83
2023/03/06 00:24:21;;;;;;;15.75;9.00;;;;;;;4.29;66.48;98791.59;335750;29;1299;-83
2023/03/06 00:24:33;;;;;;;16.27;8.73;;;;;;;4.31;65.93;98789.84;337141;29;980;-84
2023/03/06 00:24:45;;;;;;;16.00;8.70;;;;;;;4.29;65.95;98790.78;337000;29;973;-83
2023/03/06 00:24:57;;;;;;;14.77;8.57;;;;;;;4.28;66.01;98782.19;336456;29;938;-83
2023/03/06 00:25:16;;;;;;;16.30;8.85;;;;;;;4.29;66.51;98791.59;336719;29;930;-83
2023/03/06 00:25:28;;;;;;;16.92;8.98;;;;;;;4.29;66.67;98786.47;337782;29;1026;-83
2023/03/06 00:25:44;;;;;;;17.02;9.00;;;;;;;4.35;66.05;98796.63;337879;29;1022;-83
2023/03/06 00:25:59;;;;;;;19.23;9.13;;;;;;;4.39;66.03;98787.97;337937;29;1080;-84
2023/03/06 00:26:11;;;;;;;17.75;8.77;;;;;;;4.40;66.39;98788.78;335605;29;957;-84
2023/03/06 00:26:23;;;;;;;16.02;8.52;;;;;;;4.33;65.93;98788.09;337037;29;757;-83
2023/03/06 00:26:35;;;;;;;16.60;8.65;;;;;;;4.35;65.99;98786.34;334676;29;997;-84
2023/03/06 00:26:47;;;;;;;15.77;8.70;;;;;;;4.33;66.12;98788.09;336854;29;1201;-83
2023/03/06 00:26:59;;;;;;;15.38;8.35;;;;;;;4.31;65.65;98779.56;339659;29;727;-84
2023/03/06 00:27:13;;;;;;;15.55;8.65;;;;;;;4.31;66.27;98783.88;338353;29;1054;-83
2023/03/06 00:27:25;;;;;;;15.48;8.65;;;;;;;4.36;66.54;98780.28;336575;29;950;-83
2023/03/06 00:27:37;;;;;;;14.93;8.60;;;;;;;4.33;66.24;98788.09;335020;29;977;-83
2023/03/06 00:27:50;;;;;;;15.23;8.70;;;;;;;4.31;66.37;98779.56;335233;29;1128;-83
2023/03/06 00:28:02;;;;;;;16.23;8.55;;;;;;;4.36;65.75;98782.88;335177;29;1033;-83
2023/03/06 00:28:16;;;;;;;16.95;8.43;;;;;;;4.36;66.20;98776.88;335429;29;930;-83
2023/03/06 00:28:30;;;;;;;17.13;8.52;;;;;;;4.36;65.86;98780.28;335488;29;1013;-83
2023/03/06 00:28:42;;;;;;;16.42;9.00;;;;;;;4.38;65.64;98780.25;337129;29;1773;-83
2023/03/06 00:28:57;;;;;;;16.77;8.93;;;;;;;4.43;66.18;98782.72;339494;29;1094;-83
2023/03/06 00:29:09;;;;;;;15.85;8.75;;;;;;;4.44;65.86;98774.97;337295;29;942;-83
2023/03/06 00:29:21;;;;;;;15.13;8.48;;;;;;;4.48;65.28;98770.63;337352;29;1721;-83
2023/03/06 00:29:33;;;;;;;15.32;8.43;;;;;;;4.45;65.97;98775.81;337383;29;1056;-83
2023/03/06 00:29:48;;;;;;;15.65;8.68;;;;;;;4.48;65.85;98775.78;338015;29;940;-83
2023/03/06 00:30:00;;;;;;;16.35;8.90;;;;;;;4.52;65.54;98769.69;337564;29;1109;-83
2023/03/06 00:30:15;;;;;;;16.20;8.37;;;;;;;4.52;65.75;98777.41;337639;29;779;-83
2023/03/06 00:30:27;;;;;;;14.32;8.27;;;;;;;4.52;65.59;98777.41;337724;29;838;-83
2023/03/06 00:30:39;;;;;;;13.77;8.25;;;;;;;4.54;65.56;98775.63;337313;29;1731;-83
2023/03/06 00:30:51;;;;;;;15.75;8.65;;;;;;;4.52;65.14;98777.41;338840;29;1153;-83
2023/03/06 00:31:03;;;;;;;17.25;8.70;;;;;;;4.49;65.20;98777.47;337526;29;1962;-83
2023/03/06 00:31:15;;;;;;;16.17;8.82;;;;;;;4.46;65.39;98772.38;338489;29;1101;-83
2023/03/06 00:31:27;;;;;;;15.27;8.48;;;;;;;4.45;65.41;98773.25;337378;29;1012;-84
2023/03/06 00:31:39;;;;;;;15.07;8.50;;;;;;;4.48;65.37;98780.91;337475;29;745;-83
2023/03/06 00:31:51;;;;;;;15.23;8.73;;;;;;;4.49;65.29;98768.03;336277;29;1229;-84
2023/03/06 00:32:03;;;;;;;16.13;8.85;;;;;;;4.51;65.57;98775.72;336060;29;1278;-83
2023/03/06 00:32:15;;;;;;;15.25;8.63;;;;;;;4.55;65.60;98775.59;336653;29;753;-83
2023/03/06 00:32:27;;;;;;;14.15;8.50;;;;;;;4.56;65.27;98768.72;336624;29;873;-84
2023/03/06 00:32:40;;;;;;;14.02;8.75;;;;;;;4.59;65.40;98781.53;336195;29;1876;-84
2023/03/06 00:32:53;;;;;;;14.43;8.45;;;;;;;4.57;64.92;98776.41;337358;29;1314;-83
2023/03/06 00:33:05;;;;;;;14.63;8.27;;;;;;;4.53;65.06;98774.78;336947;29;1010;-83
2023/03/06 00:33:16;;;;;;;14.35;8.10;;;;;;;4.52;65.24;98777.41;338593;29;1024;-83
2023/03/06 00:33:29;;;;;;;14.95;8.15;;;;;;;4.45;65.20;98783.53;338985;29;1143;-84
2023/03/06 00:33:42;;;;;;;14.88;8.05;;;;;;;4.40;65.10;98776.78;338199;29;736;-84
2023/03/06 00:33:54;;;;;;;14.50;8.13;;;;;;;4.39;65.60;98775.09;339000;29;1190;-84
2023/03/06 00:34:06;;;;;;;15.25;8.50;;;;;;;4.42;65.32;98775.91;339152;29;1136;-84
2023/03/06 00:34:20;;;;;;;16.27;8.57;;;;;;;4.43;65.91;98778.47;339530;29;790;-83
2023/03/06 00:34:32;;;;;;;16.38;8.50;;;;;;;4.44;65.75;98779.28;337839;29;889;-84
2023/03/06 00:34:48;;;;;;;16.50;8.52;;;;;;;4.40;65.41;98779.34;337406;29;1204;-84
2023/03/06 00:34:59;;;;;;;15.70;8.48;;;;;;;4.42;66.03;98773.34;335883;29;1215;-84
2023/03/06 00:35:12;;;;;;;16.02;8.77;;;;;;;4.40;65.20;98776.78;336981;29;1012;-83
2023/03/06 00:35:24;;;;;;;16.40;9.07;;;;;;;4.43;65.69;98777.59;336078;29;996;-83
2023/03/06 00:35:40;;;;;;;14.88;8.95;;;;;;;4.46;65.91;98780.09;335321;29;760;-83
2023/03/06 00:35:52;;;;;;;15.68;8.88;;;;;;;4.45;65.84;98775.81;337097;29;1178;-83
2023/03/06 00:36:05;;;;;;;15.43;8.77;;;;;;;4.45;65.71;98775.81;337564;29;1167;-83
2023/03/06 00:36:17;;;;;;;14.52;8.55;;;;;;;4.45;65.28;98780.97;337545;29;1124;-84
2023/03/06 00:36:29;;;;;;;14.15;8.40;;;;;;;4.42;65.16;98781.06;335341;29;1451;-84
2023/03/06 00:36:41;;;;;;;17.23;8.55;;;;;;;4.39;65.38;98780.25;335682;29;1748;-83
2023/03/06 00:36:53;;;;;;;17.65;8.57;;;;;;;4.42;65.89;98783.63;335981;29;1305;-83
2023/03/06 00:37:05;;;;;;;18.10;8.52;;;;;;;4.45;65.35;98775.81;335899;29;1183;-84
2023/03/06 00:37:17;;;;;;;15.48;8.40;;;;;;;4.44;65.34;98784.44;334985;29;1129;-83
2023/03/06 00:37:30;;;;;;;15.40;8.55;;;;;;;4.42;65.33;98787.03;335526;29;1691;-84
2023/03/06 00:37:42;;;;;;;15.13;8.45;;;;;;;4.42;65.86;98776.75;337446;29;1085;-83
2023/03/06 00:37:54;;;;;;;14.23;8.30;;;;;;;4.40;65.47;98776.78;338847;29;1095;-83
2023/03/06 00:38:06;;;;;;;14.82;8.45;;;;;;;4.47;65.56;98785.22;337664;29;1102;-83
2023/03/06 00:38:18;;;;;;;14.63;8.50;;;;;;;4.48;65.55;98784.34;337697;29;1267;-83
2023/03/06 00:38:34;;;;;;;15.55;8.57;;;;;;;4.47;65.51;98784.38;337532;29;1261;-84
2023/03/06 00:38:46;;;;;;;17.15;8.77;;;;;;;4.40;65.58;98779.34;338533;29;1229;-84
2023/03/06 00:38:58;;;;;;;17.00;8.50;;;;;;;4.44;65.13;98779.28;338826;29;1062;-84
2023/03/06 00:39:10;;;;;;;16.73;8.50;;;;;;;4.40;65.50;98784.50;337537;29;1086;-84
2023/03/06 00:39:22;;;;;;;16.02;8.70;;;;;;;4.39;65.92;98782.81;337092;29;1263;-83
2023/03/06 00:39:34;;;;;;;16.17;8.65;;;;;;;4.37;65.74;98769.13;337397;29;756;-83
2023/03/06 00:39:49;;;;;;;17.50;8.93;;;;;;;4.43;65.44;98777.59;336939;29;2139;-83
2023/03/06 00:40:07;;;;;;;17.55;8.95;;;;;;;4.46;64.83;98774.97;338049;29;1720;-85
2023/03/06 00:40:20;;;;;;;16.98;8.32;;;;;;;4.38;65.22;98781.09;336645;29;887;-83
2023/03/06 00:40:32;;;;;;;16.08;8.27;;;;;;;4.42;65.46;98770.75;336081;29;1232;-83
2023/03/06 00:40:44;;;;;;;16.15;8.50;;;;;;;4.43;65.68;98777.59;335440;29;1128;-84
2023/03/06 00:40:56;;;;;;;15.52;8.35;;;;;;;4.41;65.59;98772.50;337731;29;1039;-83
2023/03/06 00:41:09;;;;;;;15.50;8.38;;;;;;;4.37;65.50;98769.13;336842;29;1514;-83
2023/03/06 00:41:22;;;;;;;15.63;8.40;;;;;;;4.36;65.62;98771.72;336695;29;1208;-84
2023/03/06 00:41:34;;;;;;;15.02;8.35;;;;;;;4.30;65.73;98767.56;335179;29;879;-83
2023/03/06 00:41:46;;;;;;;14.45;8.38;;;;;;;4.26;65.96;98765.94;335906;29;1246;-84
2023/03/06 00:41:58;;;;;;;15.40;8.55;;;;;;;4.26;65.71;98773.66;337623;29;756;-83
2023/03/06 00:42:10;;;;;;;16.80;8.48;;;;;;;4.33;65.52;98770.09;337404;29;887;-83
2023/03/06 00:42:22;;;;;;;16.58;8.55;;;;;;;4.34;65.86;98774.34;336581;29;999;-83
2023/03/06 00:42:34;;;;;;;16.63;8.65;;;;;;;4.37;65.35;98764.00;336174;29;1439;-84
2023/03/06 00:42:47;;;;;;;14.75;8.40;;;;;;;4.28;66.02;98766.75;336356;29;1095;-84
2023/03/06 00:42:59;;;;;;;14.05;8.18;;;;;;;4.28;66.19;98774.47;337610;29;981;-85
2023/03/06 00:43:11;;;;;;;13.88;7.78;;;;;;;4.25;66.16;98771.97;336619;29;753;-84
2023/03/06 00:43:23;;;;;;;15.43;7.80;;;;;;;4.26;65.47;98770.25;336445;29;1060;-84
2023/03/06 00:43:35;;;;;;;14.80;8.07;;;;;;;4.18;65.92;98767.81;336387;29;955;-85
2023/03/06 00:43:47;;;;;;;14.57;8.13;;;;;;;4.14;66.07;98771.34;337118;29;1217;-83
2023/03/06 00:43:59;;;;;;;15.07;8.13;;;;;;;4.15;66.30;98761.03;337976;29;1044;-83
2023/03/06 00:44:11;;;;;;;15.63;8.02;;;;;;;4.19;66.33;98766.97;337790;29;1058;-84
2023/03/06 00:44:23;;;;;;;17.05;8.32;;;;;;;4.19;66.15;98765.22;338249;29;893;-84
2023/03/06 00:44:35;;;;;;;16.92;8.77;;;;;;;4.21;65.94;98767.78;337473;29;951;-84
2023/03/06 00:44:47;;;;;;;16.00;8.65;;;;;;;4.13;66.04;98759.38;337180;29;1197;-83
2023/03/06 00:44:59;;;;;;;16.20;8.35;;;;;;;4.09;66.17;98762.88;336095;29;750;-83
2023/03/06 00:45:13;;;;;;;15.52;8.43;;;;;;;4.09;66.63;98763.72;336838;29;741;-84
2023/03/06 00:45:25;;;;;;;15.20;8.50;;;;;;;4.06;66.19;98768.06;336758;29;919;-83
2023/03/06 00:45:37;;;;;;;15.10;8.48;;;;;;;4.07;66.76;98759.50;335773;29;825;-84
2023/03/06 00:45:49;;;;;;;14.95;8.30;;;;;;;4.12;66.51;98755.94;338763;29;1170;-82
2023/03/06 00:46:01;;;;;;;15.73;8.30;;;;;;;4.20;66.29;98760.91;337515;29;1051;-84
2023/03/06 00:46:16;;;;;;;16.55;8.65;;;;;;;4.20;66.15;98763.50;337912;29;748;-83
2023/03/06 00:46:28;;;;;;;16.70;8.65;;;;;;;4.19;66.30;98759.25;335057;29;942;-84
2023/03/06 00:46:40;;;;;;;14.95;8.35;;;;;;;4.18;66.17;98760.94;336276;29;1067;-83
2023/03/06 00:46:52;;;;;;;14.35;8.07;;;;;;;4.16;66.26;98754.16;336929;29;1072;-84
2023/03/06 00:47:04;;;;;;;13.98;8.07;;;;;;;4.19;66.22;98760.09;338038;29;819;-83
2023/03/06 00:47:16;;;;;;;14.98;7.90;;;;;;;4.25;66.13;98758.28;339038;29;1040;-83
2023/03/06 00:47:28;;;;;;;15.70;8.07;;;;;;;4.23;66.21;98755.72;337796;29;1522;-83
2023/03/06 00:47:41;;;;;;;15.10;8.15;;;;;;;4.25;66.12;98759.13;338076;29;756;-84
2023/03/06 00:47:53;;;;;;;14.63;8.27;;;;;;;4.26;66.09;98765.94;339121;29;1157;-84
2023/03/06 00:48:05;;;;;;;12.37;7.87;;;;;;;4.22;65.88;98759.16;337926;29;1120;-83
2023/03/06 00:48:17;;;;;;;12.93;7.88;;;;;;;4.21;66.06;98762.63;337485;29;1076;-83
2023/03/06 00:48:32;;;;;;;14.30;8.35;;;;;;;4.23;66.42;98760.88;337098;29;1202;-83
2023/03/06 00:48:47;;;;;;;15.88;9.00;;;;;;;4.22;66.21;98759.16;338099;29;1082;-83
2023/03/06 00:48:59;;;;;;;15.93;8.82;;;;;;;4.25;66.23;98759.13;339382;29;747;-83
2023/03/06 00:49:11;;;;;;;15.27;8.50;;;;;;;4.26;65.82;98765.94;337722;29;978;-83
2023/03/06 00:49:23;;;;;;;14.10;8.43;;;;;;;4.24;66.45;98757.41;339055;29;855;-83
2023/03/06 00:49:35;;;;;;;14.50;8.55;;;;;;;4.28;65.64;98758.19;339401;29;906;-83
2023/03/06 00:49:48;;;;;;;14.07;8.38;;;;;;;4.29;65.96;98760.75;338474;29;747;-83
2023/03/06 00:50:00;;;;;;;14.02;8.27;;;;;;;4.23;66.13;98771.16;336538;29;1610;-83
2023/03/06 00:50:12;;;;;;;13.25;7.80;;;;;;;4.25;66.01;98759.13;336546;29;718;-83
2023/03/06 00:50:24;;;;;;;14.30;8.30;;;;;;;4.26;65.92;98765.94;335558;29;737;-83
2023/03/06 00:50:36;;;;;;;15.15;8.60;;;;;;;4.21;66.23;98767.78;337981;29;928;-83
2023/03/06 00:50:48;;;;;;;14.18;8.63;;;;;;;4.25;66.06;98769.41;336871;29;1273;-83
2023/03/06 00:51:03;;;;;;;14.05;8.50;;;;;;;4.23;66.27;98760.88;337682;29;740;-84
2023/03/06 00:51:18;;;;;;;13.30;8.32;;;;;;;4.26;66.26;98765.94;337421;29;2087;-84
2023/03/06 00:51:30;;;;;;;13.48;8.52;;;;;;;4.32;65.79;98765.81;337752;29;1036;-83
2023/03/06 00:51:42;;;;;;;13.82;8.55;;;;;;;4.33;65.81;98756.38;337955;29;950;-83
2023/03/06 00:51:54;;;;;;;16.15;9.07;;;;;;;4.34;66.12;98769.19;335217;29;846;-84
2023/03/06 00:52:06;;;;;;;16.98;9.23;;;;;;;4.31;65.69;98768.44;334173;29;1040;-83
2023/03/06 00:52:18;;;;;;;16.65;8.77;;;;;;;4.31;65.27;98764.13;335105;29;1133;-83
2023/03/06 00:52:30;;;;;;;15.18;8.63;;;;;;;4.36;65.58;98767.44;335222;29;1058;-83
2023/03/06 00:52:42;;;;;;;14.20;8.40;;;;;;;4.35;65.70;98760.59;335277;29;1909;-83
2023/03/06 00:52:54;;;;;;;14.93;8.23;;;;;;;4.29;65.83;98760.75;337696;29;1980;-83
2023/03/06 00:53:06;;;;;;;15.60;8.02;;;;;;;4.26;65.62;98765.94;338184;29;819;-83
2023/03/06 00:53:18;;;;;;;16.58;8.30;;;;;;;4.28;65.74;98763.34;337787;29;1201;-83
2023/03/06 00:53:30;;;;;;;15.45;8.18;;;;;;;4.24;66.48;98762.53;337386;29;1109;-83
2023/03/06 00:53:42;;;;;;;14.70;8.55;;;;;;;4.18;66.19;98758.38;337412;29;1136;-83
2023/03/06 00:53:54;;;;;;;15.52;8.60;;;;;;;4.20;65.97;98766.06;337578;29;1140;-83
2023/03/06 00:54:06;;;;;;;15.70;8.75;;;;;;;4.17;66.37;98761.00;337800;29;861;-83
2023/03/06 00:54:18;;;;;;;16.90;8.75;;;;;;;4.18;66.38;98760.94;337355;29;988;-83
2023/03/06 00:54:30;;;;;;;15.00;8.63;;;;;;;4.16;66.44;98767.00;338150;29;1071;-83
2023/03/06 00:54:42;;;;;;;14.50;8.52;;;;;;;4.14;66.17;98761.06;339462;29;724;-83
2023/03/06 00:54:54;;;;;;;15.35;8.52;;;;;;;4.11;66.45;98758.56;338624;29;1162;-83
2023/03/06 00:55:08;;;;;;;15.93;8.75;;;;;;;4.11;66.25;98767.13;338837;29;842;-83
2023/03/06 00:55:20;;;;;;;16.95;8.65;;;;;;;4.11;66.44;98756.00;337487;29;1081;-83
2023/03/06 00:55:32;;;;;;;16.38;9.00;;;;;;;4.23;66.42;98760.03;337952;29;1083;-83
2023/03/06 00:55:45;;;;;;;15.48;9.20;;;;;;;4.22;66.15;98761.72;337289;29;958;-83
2023/03/06 00:55:57;;;;;;;14.82;8.93;;;;;;;4.20;66.66;98760.91;337926;29;1014;-83
2023/03/06 00:56:09;;;;;;;15.18;8.77;;;;;;;4.20;66.23;98758.34;336850;29;1312;-83
2023/03/06 00:56:21;;;;;;;15.48;8.65;;;;;;;4.17;65.97;98761.84;336220;29;1809;-83
2023/03/06 00:56:33;;;;;;;15.75;8.50;;;;;;;4.20;66.34;98761.78;337295;29;1027;-84
2023/03/06 00:56:45;;;;;;;15.27;8.25;;;;;;;4.18;66.15;98757.53;337929;29;1227;-83
2023/03/06 00:56:57;;;;;;;14.80;8.40;;;;;;;4.13;66.30;98760.22;338370;29;1677;-83
2023/03/06 00:57:09;;;;;;;15.38;8.38;;;;;;;4.10;66.21;98755.13;338066;29;733;-83
2023/03/06 00:57:21;;;;;;;16.35;8.60;;;;;;;4.09;66.85;98757.75;338064;29;804;-83
2023/03/06 00:57:33;;;;;;;16.35;8.75;;;;;;;4.07;66.92;98754.34;337705;29;1051;-83
2023/03/06 00:57:45;;;;;;;14.18;8.55;;;;;;;4.00;66.72;98759.63;336379;29;1165;-83
2023/03/06 00:57:57;;;;;;;14.57;8.18;;;;;;;3.98;67.19;98753.66;336530;29;748;-83
2023/03/06 00:58:09;;;;;;;14.88;8.25;;;;;;;3.99;67.09;98757.91;337238;29;1882;-83
2023/03/06 00:58:21;;;;;;;13.52;8.10;;;;;;;3.97;67.36;98754.53;337467;29;1783;-83
2023/03/06 00:58:34;;;;;;;14.13;8.20;;;;;;;4.03;66.58;98751.00;339219;29;1940;-83
2023/03/06 00:58:46;;;;;;;13.98;8.20;;;;;;;4.09;66.78;98755.19;338948;29;1287;-83
2023/03/06 00:58:58;;;;;;;13.18;8.07;;;;;;;4.12;66.81;98752.53;339042;29;947;-83
2023/03/06 00:59:10;;;;;;;15.13;8.13;;;;;;;4.09;66.99;98752.59;338913;29;1198;-83
2023/03/06 00:59:22;;;;;;;17.20;8.52;;;;;;;4.10;66.98;98749.13;338659;29;1783;-83
2023/03/06 00:59:34;;;;;;;16.48;8.68;;;;;;;4.09;66.66;98747.47;338754;29;1034;-83
2023/03/06 00:59:46;;;;;;;14.32;8.48;;;;;;;4.07;66.75;98750.06;339007;29;1209;-83
2023/03/06 00:59:58;;;;;;;14.73;8.30;;;;;;;4.12;66.54;98748.22;337591;29;1165;-83
2023/03/06 01:00:12;;;;;;;15.70;8.50;;;;;;;4.15;66.43;98747.31;338065;29;1561;-83
2023/03/06 01:00:24;;;;;;;16.70;8.75;;;;;;;4.20;66.65;98748.94;338203;29;1874;-83
2023/03/06 01:00:37;;;;;;;15.05;8.07;;;;;;;4.23;66.74;98748.00;338232;29;1073;-83
2023/03/06 01:00:49;;;;;;;14.38;7.93;;;;;;;4.23;66.06;98748.00;339093;29;1224;-83
2023/03/06 01:01:01;;;;;;;14.65;8.18;;;;;;;4.24;66.47;98751.41;338215;29;752;-83
2023/03/06 01:01:13;;;;;;;14.73;8.35;;;;;;;4.20;66.13;98753.19;337741;29;985;-83